sensor_id;sensor_type;location;lat;lon;timestamp;temperature;humidity
1766;DHT22;880;52.452;8.656;2022-10-20T00:01:24;7.40;99.90
1766;DHT22;880;52.452;8.656;2022-10-20T00:03:53;7.40;99.90
1766;DHT22;880;52.452;8.656;2022-10-20T00:06:24;7.40;99.90
1766;DHT22;880;52.452;8.656;2022-10-20T00:08:54;7.40;99.90
1766;DHT22;880;52.452;8.656;2022-10-20T00:11:23;7.30;99.90
1766;DHT22;880;52.452;8.656;2022-10-20T00:13:53;7.30;99.90
1766;DHT22;880;52.452;8.656;2022-10-20T00:16:22;7.30;99.90
1766;DHT22;880;52.452;8.656;2022-10-20T00:18:50;7.30;99.90
1766;DHT22;880;52.452;8.656;2022-10-20T00:21:21;7.30;99.90
1766;DHT22;880;52.452;8.656;2022-10-20T00:23:49;7.30;99.90
1766;DHT22;880;52.452;8.656;2022-10-20T00:26:24;7.30;99.90
1766;DHT22;880;52.452;8.656;2022-10-20T00:28:53;7.20;99.90
1766;DHT22;880;52.452;8.656;2022-10-20T00:31:21;7.30;99.90
1766;DHT22;880;52.452;8.656;2022-10-20T00:33:49;7.30;99.90
1766;DHT22;880;52.452;8.656;2022-10-20T00:36:17;7.30;99.90
1766;DHT22;880;52.452;8.656;2022-10-20T00:38:45;7.20;99.90
1766;DHT22;880;52.452;8.656;2022-10-20T00:41:15;7.20;99.90
1766;DHT22;880;52.452;8.656;2022-10-20T00:43:50;7.20;99.90
1766;DHT22;880;52.452;8.656;2022-10-20T00:46:41;7.20;99.90
1766;DHT22;880;52.452;8.656;2022-10-20T00:49:21;7.10;99.90
1766;DHT22;880;52.452;8.656;2022-10-20T00:51:50;7.10;99.90
1766;DHT22;880;52.452;8.656;2022-10-20T00:54:24;7.10;99.90
1766;DHT22;880;52.452;8.656;2022-10-20T00:56:52;7.10;99.90
1766;DHT22;880;52.452;8.656;2022-10-20T00:59:24;7.10;99.90
1766;DHT22;880;52.452;8.656;2022-10-20T01:01:54;7.10;99.90
1766;DHT22;880;52.452;8.656;2022-10-20T01:04:22;7.20;99.90
1766;DHT22;880;52.452;8.656;2022-10-20T01:06:49;7.20;99.90
1766;DHT22;880;52.452;8.656;2022-10-20T01:09:17;7.20;99.90
1766;DHT22;880;52.452;8.656;2022-10-20T01:30:03;7.00;99.90
1766;DHT22;880;52.452;8.656;2022-10-20T01:38:41;6.90;99.90
1766;DHT22;880;52.452;8.656;2022-10-20T01:41:13;6.90;99.90
1766;DHT22;880;52.452;8.656;2022-10-20T01:43:45;6.90;99.90
1766;DHT22;880;52.452;8.656;2022-10-20T01:46:15;6.80;99.90
1766;DHT22;880;52.452;8.656;2022-10-20T01:48:45;6.80;99.90
1766;DHT22;880;52.452;8.656;2022-10-20T01:51:13;6.80;99.90
1766;DHT22;880;52.452;8.656;2022-10-20T01:53:40;6.80;99.90
1766;DHT22;880;52.452;8.656;2022-10-20T01:56:16;6.70;99.90
1766;DHT22;880;52.452;8.656;2022-10-20T02:00:09;6.70;99.90
1766;DHT22;880;52.452;8.656;2022-10-20T02:08:51;6.60;99.90
1766;DHT22;880;52.452;8.656;2022-10-20T02:14:19;6.60;99.90
1766;DHT22;880;52.452;8.656;2022-10-20T02:16:54;6.50;99.90
1766;DHT22;880;52.452;8.656;2022-10-20T02:19:27;6.50;99.90
1766;DHT22;880;52.452;8.656;2022-10-20T02:21:57;6.50;99.90
1766;DHT22;880;52.452;8.656;2022-10-20T02:24:27;6.50;99.90
1766;DHT22;880;52.452;8.656;2022-10-20T02:27:00;6.40;99.90
1766;DHT22;880;52.452;8.656;2022-10-20T02:29:37;6.50;99.90
1766;DHT22;880;52.452;8.656;2022-10-20T02:32:08;6.40;99.90
1766;DHT22;880;52.452;8.656;2022-10-20T02:34:36;6.50;99.90
1766;DHT22;880;52.452;8.656;2022-10-20T02:37:08;6.50;99.90
1766;DHT22;880;52.452;8.656;2022-10-20T02:39:35;6.40;99.90
1766;DHT22;880;52.452;8.656;2022-10-20T02:42:02;6.40;99.90
1766;DHT22;880;52.452;8.656;2022-10-20T02:44:29;6.40;99.90
1766;DHT22;880;52.452;8.656;2022-10-20T02:46:56;6.40;99.90
1766;DHT22;880;52.452;8.656;2022-10-20T02:49:23;6.40;99.90
1766;DHT22;880;52.452;8.656;2022-10-20T02:51:50;6.40;99.90
1766;DHT22;880;52.452;8.656;2022-10-20T02:54:17;6.40;99.90
1766;DHT22;880;52.452;8.656;2022-10-20T02:56:44;6.40;99.90
1766;DHT22;880;52.452;8.656;2022-10-20T02:59:13;6.40;99.90
1766;DHT22;880;52.452;8.656;2022-10-20T03:01:43;6.40;99.90
1766;DHT22;880;52.452;8.656;2022-10-20T03:04:10;6.40;99.90
1766;DHT22;880;52.452;8.656;2022-10-20T03:06:39;6.40;99.90
1766;DHT22;880;52.452;8.656;2022-10-20T03:09:06;6.40;99.90
1766;DHT22;880;52.452;8.656;2022-10-20T03:11:33;6.40;99.90
1766;DHT22;880;52.452;8.656;2022-10-20T03:14:00;6.40;99.90
1766;DHT22;880;52.452;8.656;2022-10-20T03:16:27;6.30;99.90
1766;DHT22;880;52.452;8.656;2022-10-20T03:18:54;6.30;99.90
1766;DHT22;880;52.452;8.656;2022-10-20T03:21:29;6.30;99.90
1766;DHT22;880;52.452;8.656;2022-10-20T03:23:55;6.30;99.90
1766;DHT22;880;52.452;8.656;2022-10-20T03:26:22;6.30;99.90
1766;DHT22;880;52.452;8.656;2022-10-20T03:28:49;6.20;99.90
1766;DHT22;880;52.452;8.656;2022-10-20T03:31:17;6.20;99.90
1766;DHT22;880;52.452;8.656;2022-10-20T03:33:44;6.20;99.90
1766;DHT22;880;52.452;8.656;2022-10-20T03:36:11;6.20;99.90
1766;DHT22;880;52.452;8.656;2022-10-20T03:38:40;6.20;99.90
1766;DHT22;880;52.452;8.656;2022-10-20T03:41:09;6.20;99.90
1766;DHT22;880;52.452;8.656;2022-10-20T03:43:38;6.20;99.90
1766;DHT22;880;52.452;8.656;2022-10-20T03:46:10;6.20;99.90
1766;DHT22;880;52.452;8.656;2022-10-20T03:48:38;6.20;99.90
1766;DHT22;880;52.452;8.656;2022-10-20T03:51:06;6.20;99.90
1766;DHT22;880;52.452;8.656;2022-10-20T03:53:35;6.20;99.90
1766;DHT22;880;52.452;8.656;2022-10-20T03:56:07;6.20;99.90
1766;DHT22;880;52.452;8.656;2022-10-20T03:58:35;6.10;99.90
1766;DHT22;880;52.452;8.656;2022-10-20T04:01:02;6.10;99.90
1766;DHT22;880;52.452;8.656;2022-10-20T04:03:29;6.10;99.90
1766;DHT22;880;52.452;8.656;2022-10-20T04:05:56;6.20;99.90
1766;DHT22;880;52.452;8.656;2022-10-20T04:08:23;6.20;99.90
1766;DHT22;880;52.452;8.656;2022-10-20T04:10:50;6.10;99.90
1766;DHT22;880;52.452;8.656;2022-10-20T04:13:18;6.10;99.90
1766;DHT22;880;52.452;8.656;2022-10-20T04:15:45;6.20;99.90
1766;DHT22;880;52.452;8.656;2022-10-20T04:18:12;6.20;99.90
1766;DHT22;880;52.452;8.656;2022-10-20T04:20:39;6.20;99.90
1766;DHT22;880;52.452;8.656;2022-10-20T04:23:10;6.20;99.90
1766;DHT22;880;52.452;8.656;2022-10-20T04:25:41;6.20;99.90
1766;DHT22;880;52.452;8.656;2022-10-20T04:28:14;6.10;99.90
1766;DHT22;880;52.452;8.656;2022-10-20T04:30:43;6.10;99.90
1766;DHT22;880;52.452;8.656;2022-10-20T04:33:11;6.10;99.90
1766;DHT22;880;52.452;8.656;2022-10-20T04:35:39;6.10;99.90
1766;DHT22;880;52.452;8.656;2022-10-20T04:38:06;6.10;99.90
1766;DHT22;880;52.452;8.656;2022-10-20T04:40:33;6.10;99.90
1766;DHT22;880;52.452;8.656;2022-10-20T04:43:01;6.10;99.90
1766;DHT22;880;52.452;8.656;2022-10-20T04:45:28;6.10;99.90
1766;DHT22;880;52.452;8.656;2022-10-20T04:47:55;6.00;99.90
1766;DHT22;880;52.452;8.656;2022-10-20T04:50:22;6.00;99.90
1766;DHT22;880;52.452;8.656;2022-10-20T04:53:05;6.00;99.90
1766;DHT22;880;52.452;8.656;2022-10-20T04:55:33;6.00;99.90
1766;DHT22;880;52.452;8.656;2022-10-20T04:58:00;6.00;99.90
1766;DHT22;880;52.452;8.656;2022-10-20T05:00:27;6.00;99.90
1766;DHT22;880;52.452;8.656;2022-10-20T05:02:54;6.00;99.90
1766;DHT22;880;52.452;8.656;2022-10-20T05:05:21;6.00;99.90
1766;DHT22;880;52.452;8.656;2022-10-20T05:07:48;6.00;99.90
1766;DHT22;880;52.452;8.656;2022-10-20T05:10:15;6.00;99.90
1766;DHT22;880;52.452;8.656;2022-10-20T05:12:44;6.10;99.90
1766;DHT22;880;52.452;8.656;2022-10-20T05:15:11;6.20;99.90
1766;DHT22;880;52.452;8.656;2022-10-20T05:17:38;6.20;99.90
1766;DHT22;880;52.452;8.656;2022-10-20T05:20:05;6.20;99.90
1766;DHT22;880;52.452;8.656;2022-10-20T05:22:33;6.20;99.90
1766;DHT22;880;52.452;8.656;2022-10-20T05:25:00;6.20;99.90
1766;DHT22;880;52.452;8.656;2022-10-20T05:27:47;6.20;99.90
1766;DHT22;880;52.452;8.656;2022-10-20T05:30:14;6.20;99.90
1766;DHT22;880;52.452;8.656;2022-10-20T05:32:41;6.20;99.90
1766;DHT22;880;52.452;8.656;2022-10-20T05:35:08;6.20;99.90
1766;DHT22;880;52.452;8.656;2022-10-20T05:37:38;6.20;99.90
1766;DHT22;880;52.452;8.656;2022-10-20T05:40:11;6.20;99.90
1766;DHT22;880;52.452;8.656;2022-10-20T05:42:38;6.10;99.90
1766;DHT22;880;52.452;8.656;2022-10-20T05:45:06;6.10;99.90
1766;DHT22;880;52.452;8.656;2022-10-20T05:47:34;6.10;99.90
1766;DHT22;880;52.452;8.656;2022-10-20T05:50:01;6.20;99.90
1766;DHT22;880;52.452;8.656;2022-10-20T05:52:28;6.20;99.90
1766;DHT22;880;52.452;8.656;2022-10-20T05:54:55;6.20;99.90
1766;DHT22;880;52.452;8.656;2022-10-20T05:57:22;6.20;99.90
1766;DHT22;880;52.452;8.656;2022-10-20T05:59:49;6.20;99.90
1766;DHT22;880;52.452;8.656;2022-10-20T06:02:16;6.10;99.90
1766;DHT22;880;52.452;8.656;2022-10-20T06:04:43;6.20;99.90
1766;DHT22;880;52.452;8.656;2022-10-20T06:07:10;6.20;99.90
1766;DHT22;880;52.452;8.656;2022-10-20T06:09:38;6.30;99.90
1766;DHT22;880;52.452;8.656;2022-10-20T06:12:13;6.30;99.90
1766;DHT22;880;52.452;8.656;2022-10-20T06:14:41;6.30;99.90
1766;DHT22;880;52.452;8.656;2022-10-20T06:17:08;6.20;99.90
1766;DHT22;880;52.452;8.656;2022-10-20T06:19:35;6.20;99.90
1766;DHT22;880;52.452;8.656;2022-10-20T06:22:02;6.20;99.90
1766;DHT22;880;52.452;8.656;2022-10-20T06:24:32;6.20;99.90
1766;DHT22;880;52.452;8.656;2022-10-20T06:27:00;6.20;99.90
1766;DHT22;880;52.452;8.656;2022-10-20T06:29:27;6.20;99.90
1766;DHT22;880;52.452;8.656;2022-10-20T06:31:54;6.20;99.90
1766;DHT22;880;52.452;8.656;2022-10-20T06:34:23;6.30;99.90
1766;DHT22;880;52.452;8.656;2022-10-20T06:36:58;6.30;99.90
1766;DHT22;880;52.452;8.656;2022-10-20T06:39:27;6.30;99.90
1766;DHT22;880;52.452;8.656;2022-10-20T06:41:54;6.40;99.90
1766;DHT22;880;52.452;8.656;2022-10-20T06:44:23;6.40;99.90
1766;DHT22;880;52.452;8.656;2022-10-20T06:46:50;6.40;99.90
1766;DHT22;880;52.452;8.656;2022-10-20T06:49:20;6.50;99.90
1766;DHT22;880;52.452;8.656;2022-10-20T06:51:48;6.50;99.90
1766;DHT22;880;52.452;8.656;2022-10-20T06:54:16;6.60;99.90
1766;DHT22;880;52.452;8.656;2022-10-20T06:56:43;6.60;99.90
1766;DHT22;880;52.452;8.656;2022-10-20T06:59:10;6.70;99.90
1766;DHT22;880;52.452;8.656;2022-10-20T07:01:38;6.70;99.90
1766;DHT22;880;52.452;8.656;2022-10-20T07:04:09;6.80;99.90
1766;DHT22;880;52.452;8.656;2022-10-20T07:06:38;6.80;99.90
1766;DHT22;880;52.452;8.656;2022-10-20T07:09:11;7.00;99.90
1766;DHT22;880;52.452;8.656;2022-10-20T07:11:40;7.00;99.90
1766;DHT22;880;52.452;8.656;2022-10-20T07:14:09;7.10;99.90
1766;DHT22;880;52.452;8.656;2022-10-20T07:16:38;7.10;99.90
1766;DHT22;880;52.452;8.656;2022-10-20T07:19:05;7.20;99.90
1766;DHT22;880;52.452;8.656;2022-10-20T07:21:32;7.30;99.90
1766;DHT22;880;52.452;8.656;2022-10-20T07:24:06;7.30;99.90
1766;DHT22;880;52.452;8.656;2022-10-20T07:26:37;7.40;99.90
1766;DHT22;880;52.452;8.656;2022-10-20T07:29:05;7.40;99.90
1766;DHT22;880;52.452;8.656;2022-10-20T07:31:38;7.50;99.90
1766;DHT22;880;52.452;8.656;2022-10-20T07:34:14;7.60;99.90
1766;DHT22;880;52.452;8.656;2022-10-20T07:36:54;7.60;99.90
1766;DHT22;880;52.452;8.656;2022-10-20T07:39:22;7.70;99.90
1766;DHT22;880;52.452;8.656;2022-10-20T07:41:49;7.70;99.90
1766;DHT22;880;52.452;8.656;2022-10-20T07:44:17;7.80;99.90
1766;DHT22;880;52.452;8.656;2022-10-20T07:46:44;7.90;99.90
1766;DHT22;880;52.452;8.656;2022-10-20T07:49:11;7.90;99.90
1766;DHT22;880;52.452;8.656;2022-10-20T07:51:58;8.00;99.90
1766;DHT22;880;52.452;8.656;2022-10-20T07:54:26;8.00;99.90
1766;DHT22;880;52.452;8.656;2022-10-20T07:56:53;8.10;99.90
1766;DHT22;880;52.452;8.656;2022-10-20T07:59:19;8.10;99.90
1766;DHT22;880;52.452;8.656;2022-10-20T08:01:47;8.20;99.90
1766;DHT22;880;52.452;8.656;2022-10-20T08:04:14;8.30;99.90
1766;DHT22;880;52.452;8.656;2022-10-20T08:06:41;8.40;99.90
1766;DHT22;880;52.452;8.656;2022-10-20T08:09:08;8.50;99.90
1766;DHT22;880;52.452;8.656;2022-10-20T08:11:35;8.70;99.90
1766;DHT22;880;52.452;8.656;2022-10-20T08:14:02;8.90;99.90
1766;DHT22;880;52.452;8.656;2022-10-20T08:16:29;9.00;99.90
1766;DHT22;880;52.452;8.656;2022-10-20T08:18:59;9.10;99.90
1766;DHT22;880;52.452;8.656;2022-10-20T08:21:40;9.20;99.90
1766;DHT22;880;52.452;8.656;2022-10-20T08:24:07;9.20;99.90
1766;DHT22;880;52.452;8.656;2022-10-20T08:26:34;9.20;99.90
1766;DHT22;880;52.452;8.656;2022-10-20T08:29:01;9.30;99.90
1766;DHT22;880;52.452;8.656;2022-10-20T08:31:28;9.40;99.90
1766;DHT22;880;52.452;8.656;2022-10-20T08:33:55;9.50;99.90
1766;DHT22;880;52.452;8.656;2022-10-20T08:36:22;9.60;99.90
1766;DHT22;880;52.452;8.656;2022-10-20T08:38:50;9.70;99.90
1766;DHT22;880;52.452;8.656;2022-10-20T08:41:19;9.70;99.90
1766;DHT22;880;52.452;8.656;2022-10-20T08:43:50;9.90;99.90
1766;DHT22;880;52.452;8.656;2022-10-20T08:46:21;10.00;99.90
1766;DHT22;880;52.452;8.656;2022-10-20T08:48:52;10.00;99.90
1766;DHT22;880;52.452;8.656;2022-10-20T08:51:31;10.10;99.90
1766;DHT22;880;52.452;8.656;2022-10-20T08:54:01;10.20;99.90
1766;DHT22;880;52.452;8.656;2022-10-20T08:56:31;10.20;99.90
1766;DHT22;880;52.452;8.656;2022-10-20T08:59:00;10.20;99.90
1766;DHT22;880;52.452;8.656;2022-10-20T09:01:32;10.10;99.90
1766;DHT22;880;52.452;8.656;2022-10-20T09:04:23;10.20;99.90
1766;DHT22;880;52.452;8.656;2022-10-20T09:07:08;10.10;99.90
1766;DHT22;880;52.452;8.656;2022-10-20T09:09:42;10.20;99.90
1766;DHT22;880;52.452;8.656;2022-10-20T09:12:10;10.20;99.90
1766;DHT22;880;52.452;8.656;2022-10-20T09:14:41;10.20;99.90
1766;DHT22;880;52.452;8.656;2022-10-20T09:17:16;10.20;99.90
1766;DHT22;880;52.452;8.656;2022-10-20T09:19:55;10.30;99.90
1766;DHT22;880;52.452;8.656;2022-10-20T09:22:25;10.40;99.90
1766;DHT22;880;52.452;8.656;2022-10-20T09:25:00;10.50;99.90
1766;DHT22;880;52.452;8.656;2022-10-20T09:27:32;10.50;99.90
1766;DHT22;880;52.452;8.656;2022-10-20T09:30:16;10.60;99.90
1766;DHT22;880;52.452;8.656;2022-10-20T09:32:48;10.70;99.90
1766;DHT22;880;52.452;8.656;2022-10-20T09:35:27;10.80;99.90
1766;DHT22;880;52.452;8.656;2022-10-20T09:38:19;10.90;99.90
1766;DHT22;880;52.452;8.656;2022-10-20T09:41:15;11.10;99.90
1766;DHT22;880;52.452;8.656;2022-10-20T09:44:12;11.20;99.90
1766;DHT22;880;52.452;8.656;2022-10-20T09:46:46;11.30;99.90
1766;DHT22;880;52.452;8.656;2022-10-20T09:51:53;11.50;99.90
1766;DHT22;880;52.452;8.656;2022-10-20T09:54:23;11.60;99.90
1766;DHT22;880;52.452;8.656;2022-10-20T09:56:51;11.60;99.90
1766;DHT22;880;52.452;8.656;2022-10-20T09:59:21;11.60;99.90
1766;DHT22;880;52.452;8.656;2022-10-20T10:02:00;11.70;99.90
1766;DHT22;880;52.452;8.656;2022-10-20T10:04:49;11.70;99.90
1766;DHT22;880;52.452;8.656;2022-10-20T10:09:56;11.60;99.90
1766;DHT22;880;52.452;8.656;2022-10-20T10:12:34;11.70;99.90
1766;DHT22;880;52.452;8.656;2022-10-20T10:15:23;11.70;99.90
1766;DHT22;880;52.452;8.656;2022-10-20T10:17:49;11.70;99.90
1766;DHT22;880;52.452;8.656;2022-10-20T10:22:43;11.70;99.90
1766;DHT22;880;52.452;8.656;2022-10-20T10:25:17;11.80;99.90
1766;DHT22;880;52.452;8.656;2022-10-20T10:28:04;11.90;99.90
1766;DHT22;880;52.452;8.656;2022-10-20T10:30:46;12.00;99.90
1766;DHT22;880;52.452;8.656;2022-10-20T10:33:27;12.10;99.90
1766;DHT22;880;52.452;8.656;2022-10-20T10:35:56;12.40;99.90
1766;DHT22;880;52.452;8.656;2022-10-20T10:38:23;12.60;99.90
1766;DHT22;880;52.452;8.656;2022-10-20T10:46:41;13.30;99.90
1766;DHT22;880;52.452;8.656;2022-10-20T10:49:23;13.40;99.90
1766;DHT22;880;52.452;8.656;2022-10-20T10:51:59;13.60;99.90
1766;DHT22;880;52.452;8.656;2022-10-20T10:57:35;14.20;99.90
1766;DHT22;880;52.452;8.656;2022-10-20T11:00:37;14.30;99.90
1766;DHT22;880;52.452;8.656;2022-10-20T11:06:09;14.40;99.90
1766;DHT22;880;52.452;8.656;2022-10-20T11:09:03;14.40;99.90
1766;DHT22;880;52.452;8.656;2022-10-20T11:11:44;14.30;99.90
1766;DHT22;880;52.452;8.656;2022-10-20T11:14:46;14.40;99.90
1766;DHT22;880;52.452;8.656;2022-10-20T11:26:47;14.40;99.90
1766;DHT22;880;52.452;8.656;2022-10-20T11:29:37;14.50;99.90
1766;DHT22;880;52.452;8.656;2022-10-20T11:32:29;14.70;99.90
1766;DHT22;880;52.452;8.656;2022-10-20T11:41:02;15.20;99.90
1766;DHT22;880;52.452;8.656;2022-10-20T11:46:42;15.20;99.90
1766;DHT22;880;52.452;8.656;2022-10-20T11:49:12;15.10;99.90
1766;DHT22;880;52.452;8.656;2022-10-20T12:03:48;15.30;99.90
1766;DHT22;880;52.452;8.656;2022-10-20T12:06:38;15.30;99.90
1766;DHT22;880;52.452;8.656;2022-10-20T12:10:12;15.30;99.90
1766;DHT22;880;52.452;8.656;2022-10-20T12:15:49;15.20;99.90
1766;DHT22;880;52.452;8.656;2022-10-20T12:21:01;15.20;99.90
1766;DHT22;880;52.452;8.656;2022-10-20T12:34:49;15.30;99.90
1766;DHT22;880;52.452;8.656;2022-10-20T12:39:51;15.30;99.90
1766;DHT22;880;52.452;8.656;2022-10-20T12:42:30;15.40;99.90
1766;DHT22;880;52.452;8.656;2022-10-20T12:47:53;15.40;99.90
1766;DHT22;880;52.452;8.656;2022-10-20T12:50:33;15.50;99.90
1766;DHT22;880;52.452;8.656;2022-10-20T12:56:19;15.60;99.90
1766;DHT22;880;52.452;8.656;2022-10-20T13:20:51;15.70;99.90
1766;DHT22;880;52.452;8.656;2022-10-20T13:23:27;15.60;99.90
1766;DHT22;880;52.452;8.656;2022-10-20T13:26:05;15.50;99.90
1766;DHT22;880;52.452;8.656;2022-10-20T13:28:50;15.40;99.90
1766;DHT22;880;52.452;8.656;2022-10-20T13:31:41;15.40;99.90
1766;DHT22;880;52.452;8.656;2022-10-20T13:34:27;15.30;99.90
1766;DHT22;880;52.452;8.656;2022-10-20T13:40:27;15.30;99.90
1766;DHT22;880;52.452;8.656;2022-10-20T13:46:38;15.20;99.90
1766;DHT22;880;52.452;8.656;2022-10-20T13:49:32;15.20;99.90
1766;DHT22;880;52.452;8.656;2022-10-20T13:52:19;15.20;99.90
1766;DHT22;880;52.452;8.656;2022-10-20T13:54:49;15.20;99.90
1766;DHT22;880;52.452;8.656;2022-10-20T13:57:29;15.20;99.90
1766;DHT22;880;52.452;8.656;2022-10-20T14:00:27;15.20;99.90
1766;DHT22;880;52.452;8.656;2022-10-20T14:03:21;15.20;99.90
1766;DHT22;880;52.452;8.656;2022-10-20T14:05:47;15.20;99.90
1766;DHT22;880;52.452;8.656;2022-10-20T14:08:14;15.10;99.90
1766;DHT22;880;52.452;8.656;2022-10-20T14:10:52;15.10;99.90
1766;DHT22;880;52.452;8.656;2022-10-20T14:13:24;15.10;99.90
1766;DHT22;880;52.452;8.656;2022-10-20T14:15:55;15.10;99.90
1766;DHT22;880;52.452;8.656;2022-10-20T14:18:25;15.00;99.90
1766;DHT22;880;52.452;8.656;2022-10-20T14:21:03;15.00;99.90
1766;DHT22;880;52.452;8.656;2022-10-20T14:23:36;14.90;99.90
1766;DHT22;880;52.452;8.656;2022-10-20T14:26:09;14.80;99.90
1766;DHT22;880;52.452;8.656;2022-10-20T14:28:38;14.80;99.90
1766;DHT22;880;52.452;8.656;2022-10-20T14:31:07;14.70;99.90
1766;DHT22;880;52.452;8.656;2022-10-20T14:33:44;14.70;99.90
1766;DHT22;880;52.452;8.656;2022-10-20T14:36:24;14.70;99.90
1766;DHT22;880;52.452;8.656;2022-10-20T14:38:59;14.60;99.90
1766;DHT22;880;52.452;8.656;2022-10-20T14:44:00;14.60;99.90
1766;DHT22;880;52.452;8.656;2022-10-20T14:46:43;14.50;99.90
1766;DHT22;880;52.452;8.656;2022-10-20T14:54:36;14.40;99.90
1766;DHT22;880;52.452;8.656;2022-10-20T14:59:50;14.40;99.90
1766;DHT22;880;52.452;8.656;2022-10-20T15:05:40;14.30;99.90
1766;DHT22;880;52.452;8.656;2022-10-20T15:08:19;14.40;99.90
1766;DHT22;880;52.452;8.656;2022-10-20T15:10:50;14.40;99.90
1766;DHT22;880;52.452;8.656;2022-10-20T15:13:27;14.30;99.90
1766;DHT22;880;52.452;8.656;2022-10-20T15:15:57;14.30;99.90
1766;DHT22;880;52.452;8.656;2022-10-20T15:18:27;14.30;99.90
1766;DHT22;880;52.452;8.656;2022-10-20T15:20:55;14.30;99.90
1766;DHT22;880;52.452;8.656;2022-10-20T15:23:24;14.20;99.90
1766;DHT22;880;52.452;8.656;2022-10-20T15:28:48;14.20;99.90
1766;DHT22;880;52.452;8.656;2022-10-20T15:31:27;14.20;99.90
1766;DHT22;880;52.452;8.656;2022-10-20T15:33:56;14.10;99.90
1766;DHT22;880;52.452;8.656;2022-10-20T15:36:27;14.10;99.90
1766;DHT22;880;52.452;8.656;2022-10-20T15:38:59;14.10;99.90
1766;DHT22;880;52.452;8.656;2022-10-20T15:41:28;14.10;99.90
1766;DHT22;880;52.452;8.656;2022-10-20T15:44:12;14.00;99.90
1766;DHT22;880;52.452;8.656;2022-10-20T15:46:50;14.00;99.90
1766;DHT22;880;52.452;8.656;2022-10-20T15:49:21;13.90;99.90
1766;DHT22;880;52.452;8.656;2022-10-20T15:51:48;13.90;99.90
1766;DHT22;880;52.452;8.656;2022-10-20T15:54:20;13.90;99.90
1766;DHT22;880;52.452;8.656;2022-10-20T15:56:48;13.90;99.90
1766;DHT22;880;52.452;8.656;2022-10-20T15:59:15;13.80;99.90
1766;DHT22;880;52.452;8.656;2022-10-20T16:01:42;13.80;99.90
1766;DHT22;880;52.452;8.656;2022-10-20T16:04:27;13.70;99.90
1766;DHT22;880;52.452;8.656;2022-10-20T16:06:58;13.60;99.90
1766;DHT22;880;52.452;8.656;2022-10-20T16:09:29;13.60;99.90
1766;DHT22;880;52.452;8.656;2022-10-20T16:11:56;13.60;99.90
1766;DHT22;880;52.452;8.656;2022-10-20T16:14:23;13.60;99.90
1766;DHT22;880;52.452;8.656;2022-10-20T16:16:50;13.50;99.90
1766;DHT22;880;52.452;8.656;2022-10-20T16:19:17;13.50;99.90
1766;DHT22;880;52.452;8.656;2022-10-20T16:21:44;13.40;99.90
1766;DHT22;880;52.452;8.656;2022-10-20T16:24:11;13.40;99.90
1766;DHT22;880;52.452;8.656;2022-10-20T16:26:38;13.40;99.90
1766;DHT22;880;52.452;8.656;2022-10-20T16:29:05;13.30;99.90
1766;DHT22;880;52.452;8.656;2022-10-20T16:31:32;13.30;99.90
1766;DHT22;880;52.452;8.656;2022-10-20T16:33:59;13.30;99.90
1766;DHT22;880;52.452;8.656;2022-10-20T16:36:27;13.20;99.90
1766;DHT22;880;52.452;8.656;2022-10-20T16:38:55;13.20;99.90
1766;DHT22;880;52.452;8.656;2022-10-20T16:41:23;13.30;99.90
1766;DHT22;880;52.452;8.656;2022-10-20T16:43:51;13.20;99.90
1766;DHT22;880;52.452;8.656;2022-10-20T16:46:23;13.20;99.90
1766;DHT22;880;52.452;8.656;2022-10-20T16:48:50;13.20;99.90
1766;DHT22;880;52.452;8.656;2022-10-20T16:51:17;13.20;99.90
1766;DHT22;880;52.452;8.656;2022-10-20T16:53:44;13.20;99.90
1766;DHT22;880;52.452;8.656;2022-10-20T16:56:11;13.20;99.90
1766;DHT22;880;52.452;8.656;2022-10-20T16:58:44;13.20;99.90
1766;DHT22;880;52.452;8.656;2022-10-20T17:01:12;13.20;99.90
1766;DHT22;880;52.452;8.656;2022-10-20T17:03:42;13.20;99.90
1766;DHT22;880;52.452;8.656;2022-10-20T17:06:15;13.20;99.90
1766;DHT22;880;52.452;8.656;2022-10-20T17:08:43;13.30;99.90
1766;DHT22;880;52.452;8.656;2022-10-20T17:11:16;13.30;99.90
1766;DHT22;880;52.452;8.656;2022-10-20T17:13:48;13.30;99.90
1766;DHT22;880;52.452;8.656;2022-10-20T17:16:20;13.30;99.90
1766;DHT22;880;52.452;8.656;2022-10-20T17:18:59;13.30;99.90
1766;DHT22;880;52.452;8.656;2022-10-20T17:21:29;13.20;99.90
1766;DHT22;880;52.452;8.656;2022-10-20T17:23:57;13.20;99.90
1766;DHT22;880;52.452;8.656;2022-10-20T17:26:26;13.20;99.90
1766;DHT22;880;52.452;8.656;2022-10-20T17:28:58;13.20;99.90
1766;DHT22;880;52.452;8.656;2022-10-20T17:31:26;13.20;99.90
1766;DHT22;880;52.452;8.656;2022-10-20T17:33:57;13.20;99.90
1766;DHT22;880;52.452;8.656;2022-10-20T17:36:30;13.20;99.90
1766;DHT22;880;52.452;8.656;2022-10-20T17:39:00;13.20;99.90
1766;DHT22;880;52.452;8.656;2022-10-20T17:41:29;13.20;99.90
1766;DHT22;880;52.452;8.656;2022-10-20T17:44:00;13.10;99.90
1766;DHT22;880;52.452;8.656;2022-10-20T17:46:28;13.10;99.90
1766;DHT22;880;52.452;8.656;2022-10-20T17:49:00;13.10;99.90
1766;DHT22;880;52.452;8.656;2022-10-20T17:51:28;13.00;99.90
1766;DHT22;880;52.452;8.656;2022-10-20T17:54:01;13.00;99.90
1766;DHT22;880;52.452;8.656;2022-10-20T17:56:32;13.10;99.90
1766;DHT22;880;52.452;8.656;2022-10-20T17:59:03;13.00;99.90
1766;DHT22;880;52.452;8.656;2022-10-20T18:01:34;13.10;99.90
1766;DHT22;880;52.452;8.656;2022-10-20T18:04:09;13.10;99.90
1766;DHT22;880;52.452;8.656;2022-10-20T18:06:42;13.10;99.90
1766;DHT22;880;52.452;8.656;2022-10-20T18:09:13;13.10;99.90
1766;DHT22;880;52.452;8.656;2022-10-20T18:11:45;13.10;99.90
1766;DHT22;880;52.452;8.656;2022-10-20T18:14:14;13.20;99.90
1766;DHT22;880;52.452;8.656;2022-10-20T18:16:43;13.50;99.90
1766;DHT22;880;52.452;8.656;2022-10-20T18:19:15;13.80;99.90
1766;DHT22;880;52.452;8.656;2022-10-20T18:21:43;13.70;99.90
1766;DHT22;880;52.452;8.656;2022-10-20T18:24:12;13.60;99.90
1766;DHT22;880;52.452;8.656;2022-10-20T18:26:40;13.40;99.90
1766;DHT22;880;52.452;8.656;2022-10-20T18:29:08;13.40;99.90
1766;DHT22;880;52.452;8.656;2022-10-20T18:31:37;13.30;99.90
1766;DHT22;880;52.452;8.656;2022-10-20T18:34:07;13.30;99.90
1766;DHT22;880;52.452;8.656;2022-10-20T18:36:37;13.20;99.90
1766;DHT22;880;52.452;8.656;2022-10-20T18:39:12;13.20;99.90
1766;DHT22;880;52.452;8.656;2022-10-20T18:41:40;13.10;99.90
1766;DHT22;880;52.452;8.656;2022-10-20T18:44:14;13.10;99.90
1766;DHT22;880;52.452;8.656;2022-10-20T18:46:43;13.00;99.90
1766;DHT22;880;52.452;8.656;2022-10-20T18:49:13;13.00;99.90
1766;DHT22;880;52.452;8.656;2022-10-20T18:51:43;13.00;99.90
1766;DHT22;880;52.452;8.656;2022-10-20T18:54:11;13.00;99.90
1766;DHT22;880;52.452;8.656;2022-10-20T18:56:39;13.20;99.90
1766;DHT22;880;52.452;8.656;2022-10-20T18:59:08;13.20;99.90
1766;DHT22;880;52.452;8.656;2022-10-20T19:01:39;13.20;99.90
1766;DHT22;880;52.452;8.656;2022-10-20T19:04:08;13.10;99.90
1766;DHT22;880;52.452;8.656;2022-10-20T19:06:38;13.10;99.90
1766;DHT22;880;52.452;8.656;2022-10-20T19:09:09;13.00;99.90
1766;DHT22;880;52.452;8.656;2022-10-20T19:11:38;12.90;99.90
1766;DHT22;880;52.452;8.656;2022-10-20T19:14:07;12.90;99.90
1766;DHT22;880;52.452;8.656;2022-10-20T19:16:36;12.90;99.90
1766;DHT22;880;52.452;8.656;2022-10-20T19:19:05;12.80;99.90
1766;DHT22;880;52.452;8.656;2022-10-20T19:21:34;12.80;99.90
1766;DHT22;880;52.452;8.656;2022-10-20T19:24:18;12.80;99.90
1766;DHT22;880;52.452;8.656;2022-10-20T19:26:53;12.80;99.90
1766;DHT22;880;52.452;8.656;2022-10-20T19:29:43;12.80;99.90
1766;DHT22;880;52.452;8.656;2022-10-20T19:32:10;12.70;99.90